Time;durP1;ratioP1;P1;durP2;ratioP2;P2;SDS_P1;SDS_P2;PMS_P1;PMS_P2;Temp;Humidity;BMP_temperature;BMP_pressure;BME280_temperature;BME280_humidity;BME280_pressure;Samples;Min_cycle;Max_cycle;Signal;HPM_P1;HPM_P2
2021/11/12 00:13:40;;;;;;;45.07;15.17;;;2.10;97.30;;;;;;5032488;28;20562;-84
2021/11/12 00:16:05;;;;;;;51.30;15.93;;;2.10;97.30;;;;;;5031193;28;20439;-84
2021/11/12 00:18:34;;;;;;;46.13;15.93;;;2.10;97.30;;;;;;5031388;28;20909;-84
2021/11/12 00:21:02;;;;;;;39.63;16.27;;;2.10;97.30;;;;;;5031389;28;20207;-84
2021/11/12 00:23:29;;;;;;;47.23;17.23;;;2.20;97.30;;;;;;5031164;28;20414;-84
2021/11/12 00:25:55;;;;;;;49.13;17.10;;;2.20;97.30;;;;;;5031410;28;20435;-84
2021/11/12 00:28:25;;;;;;;42.70;17.57;;;2.10;97.30;;;;;;5032176;28;20460;-84
2021/11/12 00:36:36;;;;;;;67.70;21.30;;;2.10;97.30;;;;;;5033633;28;20473;-84
2021/11/12 00:39:19;;;;;;;57.57;19.83;;;2.20;97.30;;;;;;5035289;28;20847;-84
2021/11/12 00:41:52;;;;;;;56.77;19.60;;;2.20;97.30;;;;;;5035642;28;20988;-84
2021/11/12 00:47:01;;;;;;;47.47;19.80;;;2.30;97.30;;;;;;5037156;28;20413;-85
2021/11/12 00:49:31;;;;;;;50.40;19.77;;;2.30;97.30;;;;;;5034934;28;20408;-84
2021/11/12 00:52:04;;;;;;;67.90;20.10;;;2.30;97.30;;;;;;5034297;28;20453;-84
2021/11/12 00:54:30;;;;;;;48.97;20.20;;;2.30;97.30;;;;;;5034456;28;20447;-83
2021/11/12 00:56:56;;;;;;;60.60;21.30;;;2.20;97.30;;;;;;5034606;28;20488;-84
2021/11/12 00:59:22;;;;;;;50.70;20.37;;;2.20;97.30;;;;;;5028473;28;20303;-83
2021/11/12 01:01:48;;;;;;;56.33;21.47;;;2.20;97.30;;;;;;5014575;28;20554;-83
2021/11/12 01:04:17;;;;;;;51.67;21.07;;;2.30;97.30;;;;;;5016109;28;20503;-84
2021/11/12 01:06:44;;;;;;;59.67;21.00;;;2.30;97.30;;;;;;5015448;28;20977;-84
2021/11/12 01:09:12;;;;;;;55.53;19.97;;;2.30;97.30;;;;;;5015604;28;20451;-84
2021/11/12 01:11:40;;;;;;;56.43;20.30;;;2.30;97.30;;;;;;5015208;28;20844;-83
2021/11/12 01:14:07;;;;;;;56.03;20.00;;;2.30;97.30;;;;;;5015196;28;20496;-83
2021/11/12 01:16:33;;;;;;;55.07;21.80;;;2.30;97.30;;;;;;5014755;28;20436;-83
2021/11/12 01:18:59;;;;;;;58.00;19.90;;;2.30;97.30;;;;;;5014834;28;20446;-83
2021/11/12 01:21:25;;;;;;;50.47;19.00;;;2.30;97.30;;;;;;5016245;28;20420;-83
2021/11/12 01:23:54;;;;;;;48.83;18.47;;;2.30;97.30;;;;;;5016561;28;20498;-84
2021/11/12 01:26:22;;;;;;;51.73;19.00;;;2.30;97.30;;;;;;5023634;28;20197;-84
2021/11/12 01:28:49;;;;;;;56.70;18.20;;;2.30;97.30;;;;;;5034655;28;20419;-84
2021/11/12 01:31:16;;;;;;;47.93;18.17;;;2.30;97.30;;;;;;5034693;28;20510;-84
2021/11/12 01:33:43;;;;;;;43.60;16.37;;;2.40;97.30;;;;;;5034630;28;20503;-84
2021/11/12 01:38:41;;;;;;;42.93;17.73;;;2.40;97.30;;;;;;5036514;28;20430;-85
2021/11/12 01:41:06;;;;;;;55.20;20.20;;;2.40;97.30;;;;;;5034991;28;20412;-85
2021/11/12 01:43:42;;;;;;;54.80;18.00;;;2.40;97.30;;;;;;5034798;28;20283;-84
2021/11/12 01:46:23;;;;;;;57.27;17.50;;;2.50;97.30;;;;;;5017270;28;20670;-84
2021/11/12 01:51:28;;;;;;;56.83;19.03;;;2.50;97.30;;;;;;5016278;28;20419;-85
2021/11/12 01:54:20;;;;;;;53.77;16.30;;;2.60;97.30;;;;;;5031784;28;20229;-84
2021/11/12 01:57:10;;;;;;;47.23;16.00;;;2.60;97.30;;;;;;5016309;28;20440;-84
2021/11/12 01:59:33;;;;;;;41.53;14.83;;;2.60;97.30;;;;;;5015829;28;20420;-84
2021/11/12 02:02:06;;;;;;;38.07;15.67;;;2.60;97.30;;;;;;5015593;28;20779;-84
2021/11/12 02:04:32;;;;;;;44.13;16.20;;;2.70;97.30;;;;;;5030510;28;20177;-84
2021/11/12 02:06:59;;;;;;;38.70;15.60;;;2.70;97.30;;;;;;5030254;28;20792;-84
2021/11/12 02:09:26;;;;;;;37.17;14.63;;;2.60;97.30;;;;;;5030588;28;20632;-84
2021/11/12 02:12:01;;;;;;;40.00;14.73;;;2.60;97.30;;;;;;5030752;28;20451;-84
2021/11/12 02:14:28;;;;;;;36.17;15.67;;;2.60;97.30;;;;;;5030546;28;20502;-84
2021/11/12 02:17:23;;;;;;;37.43;15.10;;;2.60;97.30;;;;;;5015567;28;20447;-84
2021/11/12 02:22:36;;;;;;;36.13;13.40;;;2.60;97.30;;;;;;5015459;28;20469;-84
2021/11/12 02:25:08;;;;;;;44.03;15.03;;;2.70;97.30;;;;;;5030434;28;20448;-85
2021/11/12 02:27:56;;;;;;;39.37;14.77;;;2.70;97.30;;;;;;5014998;28;20879;-84
2021/11/12 02:30:24;;;;;;;45.37;16.70;;;2.70;97.30;;;;;;5015608;28;20404;-84
2021/11/12 02:32:57;;;;;;;38.73;14.83;;;2.80;97.30;;;;;;5030323;28;20511;-85
2021/11/12 02:35:23;;;;;;;34.83;13.50;;;2.70;97.30;;;;;;5030459;28;20896;-84
2021/11/12 02:37:49;;;;;;;38.57;15.57;;;2.80;97.30;;;;;;5030527;28;20424;-84
2021/11/12 02:40:15;;;;;;;42.07;14.60;;;2.80;97.30;;;;;;5030397;28;20690;-84
2021/11/12 02:42:41;;;;;;;36.20;14.30;;;2.80;97.30;;;;;;5015107;28;20559;-84
2021/11/12 02:45:07;;;;;;;37.07;14.87;;;2.80;97.30;;;;;;5029896;28;20255;-85
2021/11/12 02:47:32;;;;;;;34.27;14.10;;;2.80;97.30;;;;;;5015157;28;20220;-84
2021/11/12 02:49:58;;;;;;;38.83;15.17;;;2.80;97.30;;;;;;5030258;28;20792;-84
2021/11/12 02:52:24;;;;;;;36.50;16.57;;;2.80;97.30;;;;;;5015211;28;20215;-84
2021/11/12 02:54:50;;;;;;;42.23;14.67;;;2.80;97.30;;;;;;5030269;28;20507;-84
2021/11/12 02:57:17;;;;;;;38.50;15.10;;;2.80;97.30;;;;;;5030292;28;20173;-84
2021/11/12 02:59:43;;;;;;;39.23;15.53;;;2.80;97.30;;;;;;5030197;28;20482;-84
2021/11/12 03:02:09;;;;;;;39.67;15.27;;;2.80;97.30;;;;;;5029982;28;20874;-84
2021/11/12 03:04:35;;;;;;;30.70;13.57;;;2.80;97.30;;;;;;5030346;28;20659;-85
2021/11/12 03:07:01;;;;;;;40.60;15.30;;;2.90;97.30;;;;;;5030211;28;20628;-85
2021/11/12 03:09:29;;;;;;;33.40;15.23;;;2.90;97.30;;;;;;5029898;28;20423;-84
2021/11/12 03:11:56;;;;;;;38.50;15.53;;;2.90;97.30;;;;;;5029851;28;20478;-85
2021/11/12 03:14:22;;;;;;;40.20;15.90;;;3.00;97.30;;;;;;5029788;28;20462;-84
2021/11/12 03:16:49;;;;;;;37.03;15.10;;;3.00;97.30;;;;;;5029909;28;20914;-84
2021/11/12 03:19:15;;;;;;;38.73;15.23;;;3.00;97.30;;;;;;5029638;28;20705;-84
2021/11/12 03:21:42;;;;;;;39.80;16.17;;;3.00;97.30;;;;;;5032855;28;20415;-85
2021/11/12 03:24:21;;;;;;;35.90;16.50;;;3.00;97.30;;;;;;5033221;28;20415;-84
2021/11/12 03:27:24;;;;;;;41.00;16.60;;;3.00;97.30;;;;;;5033214;28;20784;-84
2021/11/12 04:18:44;;;;;;;32.17;14.07;;;3.10;97.30;;;;;;5017793;28;20987;-85
2021/11/12 04:40:36;;;;;;;36.73;13.17;;;3.00;97.30;;;;;;5016446;28;20427;-83
2021/11/12 05:13:25;;;;;;;35.27;13.40;;;2.80;97.30;;;;;;5036284;28;20502;-85
2021/11/12 05:51:10;;;;;;;36.53;12.27;;;2.80;97.30;;;;;;5037065;28;20645;-85
2021/11/12 05:56:19;;;;;;;33.50;12.10;;;2.80;97.30;;;;;;5036420;28;20807;-84
2021/11/12 05:58:46;;;;;;;36.30;13.77;;;2.80;97.30;;;;;;5034716;28;20411;-85
2021/11/12 06:01:11;;;;;;;35.90;13.27;;;2.80;97.30;;;;;;5035470;28;20644;-85
2021/11/12 06:03:37;;;;;;;35.87;13.40;;;2.80;97.30;;;;;;5035683;28;20415;-84
2021/11/12 06:06:03;;;;;;;37.00;13.90;;;2.80;97.30;;;;;;5034603;28;20568;-84
2021/11/12 06:08:28;;;;;;;40.83;14.77;;;2.80;97.30;;;;;;5036283;28;20180;-85
2021/11/12 06:10:54;;;;;;;40.80;13.50;;;2.80;97.30;;;;;;5035336;28;20415;-85
2021/11/12 06:13:20;;;;;;;38.40;13.40;;;2.90;97.30;;;;;;5035085;28;20188;-85
2021/11/12 06:15:45;;;;;;;38.40;16.07;;;2.90;97.30;;;;;;5034797;28;20666;-86
2021/11/12 06:18:12;;;;;;;34.30;13.50;;;2.90;97.30;;;;;;5035144;28;20176;-86
2021/11/12 06:20:37;;;;;;;31.97;13.10;;;2.90;97.30;;;;;;5034502;28;20207;-86
2021/11/12 06:23:03;;;;;;;38.93;13.67;;;2.90;97.30;;;;;;5035573;28;20925;-85
2021/11/12 06:25:29;;;;;;;37.23;13.90;;;2.90;97.30;;;;;;5034448;28;20224;-87
2021/11/12 06:27:54;;;;;;;28.93;13.37;;;2.90;97.30;;;;;;5034942;28;20180;-87
2021/11/12 06:30:20;;;;;;;34.63;14.37;;;2.90;97.30;;;;;;5034547;28;20280;-88
2021/11/12 06:32:45;;;;;;;32.93;13.57;;;2.90;97.30;;;;;;5034045;28;20313;-87
2021/11/12 06:35:11;;;;;;;47.97;15.87;;;2.80;97.30;;;;;;5033758;28;20366;-87
2021/11/12 06:37:37;;;;;;;34.57;14.10;;;2.80;97.30;;;;;;5034258;28;20177;-88
2021/11/12 06:40:05;;;;;;;34.53;13.20;;;2.80;97.30;;;;;;5034131;28;20173;-87
2021/11/12 06:42:35;;;;;;;41.27;14.00;;;2.90;97.30;;;;;;5034373;28;20419;-88
2021/11/12 06:50:29;;;;;;;31.87;11.33;;;2.90;97.30;;;;;;5035293;28;20954;-89
2021/11/12 06:52:55;;;;;;;36.30;11.20;;;2.80;97.30;;;;;;5034164;28;20415;-88
2021/11/12 06:55:20;;;;;;;35.90;12.13;;;2.70;97.30;;;;;;5033357;28;20222;-87
2021/11/12 06:57:47;;;;;;;27.77;11.07;;;2.70;97.30;;;;;;5032877;28;20246;-87
2021/11/12 07:00:16;;;;;;;36.67;11.37;;;2.70;97.30;;;;;;5019984;28;20188;-87
2021/11/12 07:02:43;;;;;;;49.00;11.30;;;2.60;97.30;;;;;;5013041;28;20428;-87
2021/11/12 07:05:09;;;;;;;44.13;12.67;;;2.60;97.30;;;;;;5013018;28;20515;-87
2021/11/12 07:07:36;;;;;;;39.63;12.87;;;2.60;97.30;;;;;;5012803;28;20427;-87
2021/11/12 07:10:03;;;;;;;39.63;12.10;;;2.60;97.30;;;;;;5013140;28;20416;-87
2021/11/12 07:12:28;;;;;;;28.37;10.90;;;2.60;97.30;;;;;;5015209;28;20450;-87
2021/11/12 07:14:54;;;;;;;38.47;11.77;;;2.60;97.30;;;;;;5014964;28;20902;-87
2021/11/12 07:17:20;;;;;;;36.57;12.03;;;2.60;97.30;;;;;;5014360;28;20180;-87
2021/11/12 07:19:46;;;;;;;35.60;11.47;;;2.50;97.30;;;;;;5014330;28;20416;-87
2021/11/12 07:22:12;;;;;;;34.43;11.93;;;2.50;97.30;;;;;;5014247;28;20209;-87
2021/11/12 07:24:38;;;;;;;35.97;11.60;;;2.50;97.30;;;;;;5021427;28;20270;-87
2021/11/12 07:27:06;;;;;;;43.67;11.73;;;2.50;97.30;;;;;;5033807;28;20435;-87
2021/11/12 07:29:34;;;;;;;37.57;11.80;;;2.50;97.30;;;;;;5033839;28;20508;-87
2021/11/12 07:31:59;;;;;;;38.77;12.80;;;2.50;97.30;;;;;;5033812;28;20467;-88
2021/11/12 07:34:27;;;;;;;39.47;12.97;;;2.40;97.30;;;;;;5033837;28;20450;-87
2021/11/12 07:36:58;;;;;;;40.20;11.33;;;2.40;97.30;;;;;;5034120;28;20176;-87
2021/11/12 07:49:37;;;;;;;41.93;13.60;;;2.60;97.30;;;;;;5035001;28;20453;-85
2021/11/12 07:52:06;;;;;;;41.77;13.57;;;2.60;97.30;;;;;;5033325;28;20875;-85
2021/11/12 07:54:32;;;;;;;42.67;14.20;;;2.60;97.30;;;;;;5033493;28;20459;-85
2021/11/12 07:56:59;;;;;;;44.87;13.90;;;2.60;97.30;;;;;;5033532;28;20817;-85
2021/11/12 07:59:25;;;;;;;54.57;13.87;;;2.70;97.30;;;;;;5033325;28;20473;-84
2021/11/12 08:01:51;;;;;;;47.10;15.57;;;2.70;97.30;;;;;;5030810;28;20411;-85
2021/11/12 08:04:18;;;;;;;43.03;14.90;;;2.60;97.30;;;;;;5034780;28;20411;-85
2021/11/12 08:06:44;;;;;;;41.13;14.03;;;2.60;97.30;;;;;;5032696;28;20822;-85
2021/11/12 08:09:14;;;;;;;36.87;14.40;;;2.60;97.30;;;;;;5033379;28;20422;-85
2021/11/12 08:17:16;;;;;;;37.83;14.10;;;2.60;97.30;;;;;;5034807;28;20838;-85
2021/11/12 08:22:14;;;;;;;40.57;15.27;;;2.70;97.30;;;;;;5034401;28;20407;-85
2021/11/12 08:27:54;;;;;;;49.40;17.57;;;2.70;97.30;;;;;;5034362;28;20901;-84
2021/11/12 08:38:19;;;;;;;50.20;17.53;;;2.70;97.30;;;;;;5034536;28;20427;-85
2021/11/12 08:45:38;;;;;;;57.07;19.10;;;2.80;97.30;;;;;;5034612;28;20282;-84
2021/11/12 08:48:08;;;;;;;57.77;17.13;;;2.80;97.30;;;;;;5032801;28;20199;-85
2021/11/12 08:50:35;;;;;;;62.20;18.77;;;2.80;97.30;;;;;;5032710;28;20447;-85
2021/11/12 08:53:06;;;;;;;43.50;16.27;;;2.80;97.30;;;;;;5032821;28;20426;-85
2021/11/12 08:55:34;;;;;;;48.83;16.67;;;2.80;97.30;;;;;;5032991;28;20462;-85
2021/11/12 08:57:59;;;;;;;40.20;14.87;;;2.80;97.30;;;;;;5034343;28;20810;-85
2021/11/12 09:00:26;;;;;;;47.57;16.00;;;2.80;97.30;;;;;;5036516;28;20442;-85
2021/11/12 09:02:52;;;;;;;58.87;18.50;;;2.70;97.30;;;;;;5036576;28;20172;-85
2021/11/12 09:05:19;;;;;;;53.40;18.63;;;2.80;97.30;;;;;;5036324;28;20450;-85
2021/11/12 09:07:46;;;;;;;47.07;16.37;;;2.80;97.30;;;;;;5036311;28;20419;-85
2021/11/12 09:10:12;;;;;;;58.37;16.23;;;2.80;97.30;;;;;;5036720;28;20514;-85
2021/11/12 09:12:37;;;;;;;52.30;15.23;;;2.80;97.30;;;;;;5036502;28;20420;-84
2021/11/12 09:15:12;;;;;;;48.63;16.83;;;2.80;97.30;;;;;;5036261;28;20466;-85
2021/11/12 09:17:44;;;;;;;55.90;17.90;;;2.80;97.30;;;;;;5035706;28;20254;-85
2021/11/12 09:20:10;;;;;;;45.80;16.60;;;2.80;97.30;;;;;;5036179;28;20770;-85
2021/11/12 09:22:36;;;;;;;55.80;17.67;;;2.90;97.30;;;;;;5035489;28;20414;-85
2021/11/12 09:25:02;;;;;;;48.53;17.47;;;3.00;97.30;;;;;;5036069;28;20854;-85
2021/11/12 09:27:28;;;;;;;54.67;19.10;;;3.00;97.30;;;;;;5035834;28;20184;-85
2021/11/12 09:29:54;;;;;;;51.97;17.20;;;3.00;97.30;;;;;;5037022;28;20488;-85
2021/11/12 09:32:19;;;;;;;60.10;18.37;;;3.00;97.30;;;;;;5035822;28;20228;-84
2021/11/12 09:34:46;;;;;;;44.27;17.03;;;3.00;97.30;;;;;;5035691;28;20219;-84
2021/11/12 09:37:19;;;;;;;52.80;17.00;;;3.10;97.30;;;;;;5036286;28;20623;-87
2021/11/12 09:39:48;;;;;;;49.90;16.47;;;3.10;97.30;;;;;;5036116;28;20423;-88
2021/11/12 09:42:14;;;;;;;49.60;16.50;;;3.10;97.30;;;;;;5035893;28;20513;-87
2021/11/12 09:44:39;;;;;;;47.20;16.47;;;3.10;97.30;;;;;;5035808;28;20415;-85
2021/11/12 09:47:05;;;;;;;46.90;18.40;;;3.10;97.30;;;;;;5035784;28;20457;-85
2021/11/12 09:49:32;;;;;;;47.90;17.53;;;3.20;97.30;;;;;;5035897;28;20204;-86
2021/11/12 09:51:59;;;;;;;51.80;17.93;;;3.20;97.30;;;;;;5035809;28;20426;-82
2021/11/12 09:54:25;;;;;;;54.93;17.50;;;3.30;97.30;;;;;;5035943;28;20643;-82
2021/11/12 09:56:51;;;;;;;49.37;17.37;;;3.40;97.30;;;;;;5036889;28;20989;-82
2021/11/12 09:59:16;;;;;;;52.67;18.00;;;3.40;97.30;;;;;;5037763;28;20179;-82
2021/11/12 10:01:42;;;;;;;58.90;18.07;;;3.50;97.30;;;;;;5042182;28;20168;-82
2021/11/12 10:04:09;;;;;;;57.07;17.90;;;3.50;97.30;;;;;;5037811;28;20286;-82
2021/11/12 10:06:38;;;;;;;54.93;19.63;;;3.60;97.30;;;;;;5035427;28;20267;-82
2021/11/12 10:09:15;;;;;;;57.13;19.33;;;3.60;97.30;;;;;;5035987;28;20423;-82
2021/11/12 10:11:50;;;;;;;57.13;18.63;;;3.60;97.30;;;;;;5034399;28;20422;-83
2021/11/12 10:14:25;;;;;;;47.13;18.20;;;3.60;97.30;;;;;;5035013;28;21229;-85
2021/11/12 10:16:56;;;;;;;57.40;19.47;;;3.60;97.30;;;;;;5035126;28;20995;-86
2021/11/12 10:19:22;;;;;;;59.57;18.53;;;3.70;97.30;;;;;;5034786;28;20415;-86
2021/11/12 10:21:47;;;;;;;48.17;16.37;;;3.70;97.30;;;;;;5036259;28;20407;-86
2021/11/12 10:24:27;;;;;;;65.70;19.50;;;3.60;97.30;;;;;;5035057;28;20418;-85
2021/11/12 10:26:56;;;;;;;55.67;19.30;;;3.50;97.30;;;;;;5034476;28;20180;-86
2021/11/12 10:29:30;;;;;;;54.63;19.87;;;3.50;97.30;;;;;;5034749;28;20419;-85
2021/11/12 10:32:01;;;;;;;58.73;19.90;;;3.60;97.30;;;;;;5034692;28;20511;-86
2021/11/12 10:34:33;;;;;;;63.07;19.53;;;3.60;97.30;;;;;;5035513;28;20459;-80
2021/11/12 10:37:06;;;;;;;67.30;19.10;;;3.60;97.30;;;;;;5036340;28;20407;-81
2021/11/12 10:39:57;;;;;;;66.70;21.30;;;3.70;97.30;;;;;;5036260;28;20429;-81
2021/11/12 10:42:28;;;;;;;64.70;21.17;;;3.70;97.30;;;;;;5036337;28;20491;-79
2021/11/12 10:44:59;;;;;;;62.60;19.57;;;3.80;97.30;;;;;;5036252;28;20462;-80
2021/11/12 10:47:29;;;;;;;63.27;23.07;;;3.80;97.30;;;;;;5036740;28;20732;-80
2021/11/12 10:50:00;;;;;;;60.63;22.70;;;3.90;97.30;;;;;;5036871;28;20408;-80
2021/11/12 10:52:28;;;;;;;62.97;20.47;;;3.90;97.30;;;;;;5037030;28;20422;-80
2021/11/12 10:55:12;;;;;;;62.80;18.50;;;3.90;97.30;;;;;;5035625;28;20489;-80
2021/11/12 10:57:44;;;;;;;56.70;19.87;;;3.90;97.30;;;;;;5035563;28;20403;-80
2021/11/12 11:00:29;;;;;;;58.83;20.97;;;4.00;97.30;;;;;;5035589;28;20396;-80
2021/11/12 11:03:05;;;;;;;66.77;20.70;;;4.00;97.30;;;;;;5035948;28;20436;-80
2021/11/12 11:05:44;;;;;;;55.93;19.47;;;4.00;97.30;;;;;;5036062;28;20544;-81
2021/11/12 11:08:22;;;;;;;59.67;19.03;;;4.10;97.30;;;;;;5036366;28;20480;-81
2021/11/12 11:11:02;;;;;;;68.77;21.33;;;4.10;97.30;;;;;;5036616;28;20963;-80
2021/11/12 11:13:35;;;;;;;56.43;19.97;;;4.10;97.30;;;;;;5035754;28;20403;-81
2021/11/12 11:16:18;;;;;;;56.93;19.93;;;3.90;97.30;;;;;;5035795;28;20443;-81
2021/11/12 11:18:44;;;;;;;65.27;21.70;;;3.90;97.30;;;;;;5035707;28;20875;-81
2021/11/12 11:23:52;;;;;;;59.87;21.10;;;4.00;97.30;;;;;;5037561;28;20451;-81
2021/11/12 11:26:24;;;;;;;54.50;18.60;;;4.00;97.30;;;;;;5035058;28;20193;-81
2021/11/12 11:28:59;;;;;;;58.53;18.60;;;4.10;97.30;;;;;;5035985;28;20412;-81
2021/11/12 11:31:25;;;;;;;62.40;19.50;;;4.10;97.30;;;;;;5035535;28;20421;-81
2021/11/12 11:33:53;;;;;;;56.37;19.63;;;4.10;97.30;;;;;;5035057;28;20486;-80
2021/11/12 11:36:21;;;;;;;64.63;20.77;;;4.10;97.30;;;;;;5035614;28;20980;-80
2021/11/12 11:38:48;;;;;;;61.97;19.80;;;4.10;97.30;;;;;;5035498;28;20412;-80
2021/11/12 11:41:17;;;;;;;62.13;18.70;;;4.10;97.30;;;;;;5035538;28;20925;-81
2021/11/12 11:43:43;;;;;;;65.17;21.63;;;4.10;97.30;;;;;;5036087;28;20412;-81
2021/11/12 11:46:14;;;;;;;64.27;21.40;;;4.10;97.30;;;;;;5035170;28;20502;-79
2021/11/12 11:48:42;;;;;;;69.20;20.60;;;4.10;97.30;;;;;;5035081;28;20495;-81
2021/11/12 11:51:08;;;;;;;69.97;22.23;;;4.10;97.30;;;;;;5035818;28;20407;-81
2021/11/12 11:53:46;;;;;;;70.70;23.80;;;4.00;97.30;;;;;;5034800;28;20887;-80
2021/11/12 11:56:20;;;;;;;69.70;21.93;;;4.00;97.30;;;;;;5034482;28;20498;-81
2021/11/12 11:58:47;;;;;;;68.83;22.57;;;3.90;97.30;;;;;;5034855;28;20419;-80
2021/11/12 12:01:16;;;;;;;59.43;20.73;;;3.90;97.30;;;;;;5034747;28;20407;-81
2021/11/12 12:03:42;;;;;;;62.80;22.20;;;3.90;97.30;;;;;;5035348;28;20448;-81
2021/11/12 12:06:18;;;;;;;68.70;19.80;;;3.90;97.30;;;;;;5034990;28;20913;-81
2021/11/12 12:08:52;;;;;;;62.87;21.30;;;3.90;97.30;;;;;;5034814;28;20417;-81
2021/11/12 12:11:24;;;;;;;73.33;22.60;;;3.90;97.30;;;;;;5034465;28;20411;-80
2021/11/12 12:14:32;;;;;;;65.60;21.63;;;3.90;97.30;;;;;;5034271;28;20470;-80
2021/11/12 12:17:05;;;;;;;59.60;21.67;;;3.80;97.30;;;;;;5034840;28;20417;-80
2021/11/12 12:20:02;;;;;;;69.90;21.77;;;3.80;97.30;;;;;;5035889;28;20422;-81
2021/11/12 12:34:25;;;;;;;65.47;19.87;;;3.90;97.30;;;;;;5036755;28;20481;-81
2021/11/12 13:25:11;;;;;;;61.67;20.70;;;3.70;97.30;;;;;;5038884;28;20496;-81
2021/11/12 13:27:38;;;;;;;56.73;19.63;;;3.70;97.30;;;;;;5038275;28;20434;-82
2021/11/12 13:30:06;;;;;;;44.43;17.17;;;3.70;97.30;;;;;;5037357;28;20960;-81
2021/11/12 13:32:40;;;;;;;53.50;18.70;;;3.70;97.30;;;;;;5037669;28;20470;-81
2021/11/12 13:35:06;;;;;;;52.33;19.17;;;3.70;97.30;;;;;;5037379;28;20474;-81
2021/11/12 13:37:32;;;;;;;59.37;22.50;;;3.70;97.30;;;;;;5038480;28;20408;-81
2021/11/12 13:40:08;;;;;;;50.70;19.10;;;3.70;97.30;;;;;;5037992;28;20831;-80
2021/11/12 13:42:42;;;;;;;61.30;21.00;;;3.70;97.30;;;;;;5037795;28;20408;-81
2021/11/12 13:45:20;;;;;;;55.93;17.70;;;3.60;97.30;;;;;;5036416;28;20457;-81
2021/11/12 13:47:57;;;;;;;53.40;17.97;;;3.70;97.30;;;;;;5037959;28;20407;-81
2021/11/12 13:50:23;;;;;;;50.17;19.17;;;3.80;97.30;;;;;;5037996;28;20435;-81
2021/11/12 13:52:51;;;;;;;58.37;18.60;;;3.90;97.30;;;;;;5037817;28;20415;-81
2021/11/12 13:55:16;;;;;;;57.17;19.10;;;3.90;97.30;;;;;;5037624;28;20486;-81
2021/11/12 13:57:57;;;;;;;52.37;20.60;;;3.90;97.30;;;;;;5038067;28;20422;-80
2021/11/12 14:00:28;;;;;;;48.43;18.77;;;3.90;97.30;;;;;;5037490;28;20172;-81
2021/11/12 14:03:06;;;;;;;50.23;17.87;;;3.90;97.30;;;;;;5038800;28;20399;-81
2021/11/12 14:05:33;;;;;;;62.47;20.60;;;3.90;97.30;;;;;;5037527;28;20439;-81
2021/11/12 14:08:04;;;;;;;46.30;16.97;;;4.00;97.30;;;;;;5037185;28;20442;-81
2021/11/12 14:10:44;;;;;;;53.90;17.50;;;4.00;97.30;;;;;;5038562;28;20499;-81
2021/11/12 14:13:14;;;;;;;52.13;19.17;;;4.00;97.30;;;;;;5037249;28;20517;-81
2021/11/12 14:15:48;;;;;;;64.17;19.93;;;4.00;97.30;;;;;;5037323;28;20467;-81
2021/11/12 14:29:32;;;;;;;65.20;20.60;;;4.20;97.30;;;;;;5038481;28;20402;-81
2021/11/12 14:32:24;;;;;;;79.67;22.50;;;4.20;97.30;;;;;;5036506;28;20935;-81
2021/11/12 14:40:18;;;;;;;86.97;23.87;;;4.20;97.30;;;;;;5038046;28;20411;-81
2021/11/12 14:45:56;;;;;;;78.40;23.77;;;4.20;97.30;;;;;;5038759;28;20537;-80
2021/11/12 14:48:29;;;;;;;81.60;24.70;;;4.30;97.30;;;;;;5036159;28;20553;-80
2021/11/12 14:51:09;;;;;;;82.90;24.73;;;4.30;97.30;;;;;;5036794;28;20423;-81
2021/11/12 14:53:55;;;;;;;77.30;23.37;;;4.30;97.30;;;;;;5036602;28;20476;-81
2021/11/12 14:56:25;;;;;;;81.70;23.87;;;4.30;97.30;;;;;;5035773;28;20439;-80
2021/11/12 14:59:00;;;;;;;75.07;21.53;;;4.30;97.30;;;;;;5036647;28;20412;-81
2021/11/12 15:01:29;;;;;;;70.20;21.67;;;4.30;97.30;;;;;;5036730;28;20793;-80
2021/11/12 15:03:55;;;;;;;79.37;24.00;;;4.30;97.30;;;;;;5035850;28;20423;-81
2021/11/12 15:06:24;;;;;;;82.60;23.07;;;4.30;97.30;;;;;;5036212;28;20441;-81
2021/11/12 15:09:29;;;;;;;79.90;25.80;;;4.30;97.30;;;;;;5035895;28;20423;-81
2021/11/12 15:11:46;;;;;;;85.07;27.63;;;4.30;97.30;;;;;;5036168;28;20427;-80
2021/11/12 15:14:16;;;;;;;76.17;24.80;;;4.30;97.30;;;;;;5035984;28;20466;-81
2021/11/12 15:16:42;;;;;;;69.03;25.30;;;4.30;97.30;;;;;;5035817;28;20784;-81
2021/11/12 15:19:12;;;;;;;81.63;22.80;;;4.30;97.30;;;;;;5035892;28;20438;-80
2021/11/12 15:21:58;;;;;;;68.53;21.60;;;4.20;97.30;;;;;;5036122;28;20414;-81
2021/11/12 15:24:31;;;;;;;74.80;25.37;;;4.20;97.30;;;;;;5036533;28;20397;-81
2021/11/12 15:30:06;;;;;;;75.93;23.13;;;4.30;97.30;;;;;;5037116;28;20410;-81
2021/11/12 15:32:37;;;;;;;76.40;23.43;;;4.30;97.30;;;;;;5035236;28;20876;-81
2021/11/12 15:35:08;;;;;;;67.13;22.43;;;4.20;97.30;;;;;;5035842;28;20487;-81
2021/11/12 15:37:43;;;;;;;74.50;23.57;;;4.30;97.30;;;;;;5035413;28;20438;-81
2021/11/12 15:47:52;;;;;;;86.40;25.13;;;4.20;97.30;;;;;;5037210;28;20411;-81
2021/11/12 15:50:24;;;;;;;54.53;19.80;;;4.20;97.30;;;;;;5035300;28;20419;-81
2021/11/12 16:08:30;;;;;;;72.27;23.17;;;4.30;97.30;;;;;;5036002;28;20493;-81
2021/11/12 16:13:47;;;;;;;51.87;18.07;;;4.30;97.30;;;;;;5040199;28;20406;-81
2021/11/12 16:19:01;;;;;;;63.20;18.90;;;4.30;97.30;;;;;;5040434;28;20399;-82
2021/11/12 16:26:59;;;;;;;65.80;19.93;;;4.30;97.30;;;;;;5040164;28;20441;-84
2021/11/12 16:32:02;;;;;;;63.43;19.60;;;4.20;97.30;;;;;;5040849;28;20458;-83
2021/11/12 16:34:29;;;;;;;63.13;22.83;;;4.20;97.30;;;;;;5041168;28;20457;-84
2021/11/12 16:37:00;;;;;;;68.83;19.10;;;4.20;97.30;;;;;;5042230;28;20426;-84
2021/11/12 17:06:23;;;;;;;63.53;18.00;;;3.90;97.30;;;;;;5035746;28;20501;-82
2021/11/12 17:13:42;;;;;;;66.60;19.70;;;3.90;97.30;;;;;;5038477;28;20176;-81
2021/11/12 17:47:48;;;;;;;56.00;19.97;;;4.00;97.30;;;;;;5038390;28;20431;-81
2021/11/12 17:50:20;;;;;;;73.87;20.83;;;4.00;97.30;;;;;;5036414;28;20181;-81
2021/11/12 18:03:27;;;;;;;81.10;23.20;;;4.00;97.30;;;;;;5038249;28;20919;-81
2021/11/12 18:22:45;;;;;;;49.80;18.17;;;3.90;97.30;;;;;;5015597;28;20392;-81
2021/11/12 21:46:42;;;;;;;29.87;13.17;;;2.60;97.30;;;;;;5036118;28;20438;-84
2021/11/12 21:49:07;;;;;;;40.43;15.53;;;2.60;97.30;;;;;;5035568;28;20415;-84
2021/11/12 21:51:39;;;;;;;33.00;15.50;;;2.60;97.30;;;;;;5036398;28;20809;-85
2021/11/12 21:54:05;;;;;;;29.17;12.83;;;2.60;97.30;;;;;;5035143;28;20185;-85
2021/11/12 21:56:31;;;;;;;36.03;12.57;;;2.60;97.30;;;;;;5034964;28;20451;-84
2021/11/12 21:58:57;;;;;;;33.30;13.80;;;2.50;97.30;;;;;;5024352;28;20642;-85
2021/11/12 22:01:24;;;;;;;29.70;11.93;;;2.50;97.30;;;;;;5032145;28;20415;-84
2021/11/12 22:03:50;;;;;;;35.20;14.33;;;2.50;97.30;;;;;;5034995;28;20536;-84
2021/11/12 22:06:16;;;;;;;28.17;12.70;;;2.50;97.30;;;;;;5033807;28;20492;-85
2021/11/12 22:08:41;;;;;;;29.33;13.00;;;2.50;97.30;;;;;;5034803;28;20427;-85
2021/11/12 22:11:09;;;;;;;31.50;14.00;;;2.50;97.30;;;;;;5034891;28;20173;-84
2021/11/12 22:13:37;;;;;;;36.87;13.03;;;2.50;97.30;;;;;;5026519;28;20180;-85
2021/11/12 22:16:04;;;;;;;33.63;13.67;;;2.40;97.30;;;;;;5021884;28;20471;-85
2021/11/12 22:18:29;;;;;;;31.87;14.30;;;2.40;97.30;;;;;;5023156;28;20411;-85
2021/11/12 22:20:55;;;;;;;31.00;13.60;;;2.50;97.30;;;;;;5023689;28;21388;-85
2021/11/12 22:23:21;;;;;;;30.40;12.90;;;2.40;97.30;;;;;;5031154;28;20232;-84
2021/11/12 22:25:48;;;;;;;36.00;13.73;;;2.40;97.30;;;;;;5024210;28;20246;-83
2021/11/12 22:28:14;;;;;;;31.40;12.50;;;2.40;97.30;;;;;;5026658;28;20415;-85
2021/11/12 22:30:40;;;;;;;36.07;12.50;;;2.40;97.30;;;;;;5022857;28;20412;-85
2021/11/12 22:33:06;;;;;;;35.50;15.10;;;2.40;97.30;;;;;;5023048;28;20600;-85
2021/11/12 22:35:33;;;;;;;32.93;13.37;;;2.40;97.30;;;;;;5023371;28;20211;-84
2021/11/12 22:37:59;;;;;;;34.27;13.90;;;2.40;97.30;;;;;;5021828;28;20812;-85
2021/11/12 22:40:25;;;;;;;33.27;13.90;;;2.40;97.30;;;;;;5022198;28;20424;-85
2021/11/12 22:42:51;;;;;;;37.33;15.07;;;2.40;97.30;;;;;;5023028;28;20479;-85
2021/11/12 22:45:16;;;;;;;36.97;14.10;;;2.40;97.30;;;;;;5023979;28;20470;-86
2021/11/12 22:47:44;;;;;;;32.23;12.13;;;2.40;97.30;;;;;;5021997;28;20182;-85
2021/11/12 22:50:12;;;;;;;32.60;13.40;;;2.40;97.30;;;;;;5022687;28;20173;-86
2021/11/12 22:52:37;;;;;;;28.80;12.50;;;2.40;97.30;;;;;;5024591;28;20423;-85
2021/11/12 22:55:04;;;;;;;34.17;13.97;;;2.40;97.30;;;;;;5021834;28;20466;-86
2021/11/12 22:57:29;;;;;;;31.37;12.80;;;2.30;97.30;;;;;;5024522;28;20267;-86
2021/11/12 22:59:55;;;;;;;28.07;12.80;;;2.30;97.30;;;;;;5024308;28;20996;-86
2021/11/12 23:02:21;;;;;;;22.97;11.97;;;2.30;97.30;;;;;;5025408;28;20225;-86
2021/11/12 23:04:47;;;;;;;31.77;14.70;;;2.30;97.30;;;;;;5022458;28;20192;-86
2021/11/12 23:07:13;;;;;;;32.50;13.20;;;2.30;97.30;;;;;;5026958;28;20181;-85